sensor_id;sensor_type;location;lat;lon;timestamp;pressure;altitude;pressure_sealevel;temperature;humidity
41898;BME280;27576;53.366;-1.498;2023-07-20T00:02:13;100314.44;;;13.92;100.00
41898;BME280;27576;53.366;-1.498;2023-07-20T00:04:39;100277.16;;;13.68;100.00
41898;BME280;27576;53.366;-1.498;2023-07-20T00:07:05;100282.34;;;13.68;100.00
41898;BME280;27576;53.366;-1.498;2023-07-20T00:09:30;100298.84;;;13.73;100.00
41898;BME280;27576;53.366;-1.498;2023-07-20T00:11:56;100288.41;;;13.70;100.00
41898;BME280;27576;53.366;-1.498;2023-07-20T00:14:21;100312.72;;;13.88;100.00
41898;BME280;27576;53.366;-1.498;2023-07-20T00:16:47;100317.91;;;13.85;100.00
41898;BME280;27576;53.366;-1.498;2023-07-20T00:19:14;100310.97;;;13.82;100.00
41898;BME280;27576;53.366;-1.498;2023-07-20T00:21:41;100317.06;;;13.81;100.00
41898;BME280;27576;53.366;-1.498;2023-07-20T00:24:07;100301.44;;;13.69;100.00
41898;BME280;27576;53.366;-1.498;2023-07-20T00:26:33;100294.50;;;13.66;100.00
41898;BME280;27576;53.366;-1.498;2023-07-20T00:28:58;100309.22;;;13.75;100.00
41898;BME280;27576;53.366;-1.498;2023-07-20T00:31:23;100314.47;;;13.80;100.00
41898;BME280;27576;53.366;-1.498;2023-07-20T00:33:49;100310.97;;;13.74;100.00
41898;BME280;27576;53.366;-1.498;2023-07-20T00:36:14;100315.31;;;13.77;100.00
41898;BME280;27576;53.366;-1.498;2023-07-20T00:38:39;100303.19;;;13.76;100.00
41898;BME280;27576;53.366;-1.498;2023-07-20T00:41:06;100304.91;;;13.74;100.00
41898;BME280;27576;53.366;-1.498;2023-07-20T00:43:31;100302.31;;;13.72;100.00
41898;BME280;27576;53.366;-1.498;2023-07-20T00:45:56;100304.03;;;13.70;100.00
41898;BME280;27576;53.366;-1.498;2023-07-20T00:48:23;100267.63;;;13.49;100.00
41898;BME280;27576;53.366;-1.498;2023-07-20T00:50:49;100290.16;;;13.62;100.00
41898;BME280;27576;53.366;-1.498;2023-07-20T00:53:15;100287.56;;;13.62;100.00
41898;BME280;27576;53.366;-1.498;2023-07-20T00:55:41;100290.16;;;13.65;100.00
41898;BME280;27576;53.366;-1.498;2023-07-20T00:58:06;100288.44;;;13.58;100.00
41898;BME280;27576;53.366;-1.498;2023-07-20T01:00:32;100285.84;;;13.57;100.00
41898;BME280;27576;53.366;-1.498;2023-07-20T01:02:57;100265.03;;;13.44;100.00
41898;BME280;27576;53.366;-1.498;2023-07-20T01:05:31;100273.69;;;13.46;100.00
41898;BME280;27576;53.366;-1.498;2023-07-20T01:08:03;100290.19;;;13.56;100.00
41898;BME280;27576;53.366;-1.498;2023-07-20T01:10:38;100274.56;;;13.44;100.00
41898;BME280;27576;53.366;-1.498;2023-07-20T01:13:06;100258.97;;;13.36;100.00
41898;BME280;27576;53.366;-1.498;2023-07-20T01:15:33;100280.66;;;13.52;100.00
41898;BME280;27576;53.366;-1.498;2023-07-20T01:17:59;100259.81;;;13.40;100.00
41898;BME280;27576;53.366;-1.498;2023-07-20T01:20:26;100281.50;;;13.46;100.00
41898;BME280;27576;53.366;-1.498;2023-07-20T01:25:57;100260.69;;;13.36;100.00
41898;BME280;27576;53.366;-1.498;2023-07-20T01:31:32;100274.59;;;13.36;100.00
41898;BME280;27576;53.366;-1.498;2023-07-20T01:34:00;100250.28;;;13.20;100.00
41898;BME280;27576;53.366;-1.498;2023-07-20T01:36:29;100264.19;;;13.30;100.00
41898;BME280;27576;53.366;-1.498;2023-07-20T01:38:56;100239.00;;;13.17;100.00
41898;BME280;27576;53.366;-1.498;2023-07-20T01:41:22;100261.59;;;13.33;100.00
41898;BME280;27576;53.366;-1.498;2023-07-20T01:43:48;100266.75;;;13.32;100.00
41898;BME280;27576;53.366;-1.498;2023-07-20T01:46:13;100263.31;;;13.31;100.00
41898;BME280;27576;53.366;-1.498;2023-07-20T01:48:39;100245.94;;;13.21;100.00
41898;BME280;27576;53.366;-1.498;2023-07-20T01:51:04;100265.06;;;13.29;100.00
41898;BME280;27576;53.366;-1.498;2023-07-20T01:53:30;100257.25;;;13.24;100.00
41898;BME280;27576;53.366;-1.498;2023-07-20T01:55:56;100257.25;;;13.29;100.00
41898;BME280;27576;53.366;-1.498;2023-07-20T01:58:21;100266.78;;;13.29;100.00
41898;BME280;27576;53.366;-1.498;2023-07-20T02:00:47;100258.97;;;13.27;100.00
41898;BME280;27576;53.366;-1.498;2023-07-20T02:03:12;100244.19;;;13.18;100.00
41898;BME280;27576;53.366;-1.498;2023-07-20T02:05:38;100246.81;;;13.18;100.00
41898;BME280;27576;53.366;-1.498;2023-07-20T02:08:03;100238.13;;;13.16;100.00
41898;BME280;27576;53.366;-1.498;2023-07-20T02:10:29;100239.00;;;13.15;100.00
41898;BME280;27576;53.366;-1.498;2023-07-20T02:12:54;100252.06;;;13.24;100.00
41898;BME280;27576;53.366;-1.498;2023-07-20T02:15:20;100253.78;;;13.25;100.00
41898;BME280;27576;53.366;-1.498;2023-07-20T02:17:46;100252.91;;;13.25;100.00
41898;BME280;27576;53.366;-1.498;2023-07-20T02:20:12;100219.06;;;13.05;100.00
41898;BME280;27576;53.366;-1.498;2023-07-20T02:22:37;100227.75;;;13.06;100.00
41898;BME280;27576;53.366;-1.498;2023-07-20T02:25:07;100219.94;;;13.10;100.00
41898;BME280;27576;53.366;-1.498;2023-07-20T02:27:36;100225.97;;;13.12;100.00
41898;BME280;27576;53.366;-1.498;2023-07-20T02:30:02;100245.09;;;13.20;100.00
41898;BME280;27576;53.366;-1.498;2023-07-20T02:32:29;100229.47;;;13.13;100.00
41898;BME280;27576;53.366;-1.498;2023-07-20T02:34:54;100245.09;;;13.20;100.00
41898;BME280;27576;53.366;-1.498;2023-07-20T02:37:20;100238.13;;;13.19;100.00
41898;BME280;27576;53.366;-1.498;2023-07-20T02:39:45;100230.34;;;13.10;100.00
41898;BME280;27576;53.366;-1.498;2023-07-20T02:42:10;100218.19;;;13.00;100.00
41898;BME280;27576;53.366;-1.498;2023-07-20T02:44:36;100246.78;;;13.15;100.00
41898;BME280;27576;53.366;-1.498;2023-07-20T02:47:01;100247.66;;;13.14;100.00
41898;BME280;27576;53.366;-1.498;2023-07-20T02:49:27;100245.94;;;13.13;100.00
41898;BME280;27576;53.366;-1.498;2023-07-20T02:51:53;100243.34;;;13.10;100.00
41898;BME280;27576;53.366;-1.498;2023-07-20T02:54:18;100226.88;;;12.99;100.00
41898;BME280;27576;53.366;-1.498;2023-07-20T02:56:43;100242.47;;;13.07;100.00
41898;BME280;27576;53.366;-1.498;2023-07-20T02:59:09;100239.88;;;13.11;100.00
41898;BME280;27576;53.366;-1.498;2023-07-20T03:01:35;100222.50;;;12.96;100.00
41898;BME280;27576;53.366;-1.498;2023-07-20T03:04:01;100214.72;;;12.96;100.00
41898;BME280;27576;53.366;-1.498;2023-07-20T03:06:27;100208.66;;;12.90;100.00
41898;BME280;27576;53.366;-1.498;2023-07-20T03:08:53;100187.00;;;12.78;100.00
41898;BME280;27576;53.366;-1.498;2023-07-20T03:11:19;100215.56;;;12.92;100.00
41898;BME280;27576;53.366;-1.498;2023-07-20T03:13:46;100238.13;;;13.07;100.00
41898;BME280;27576;53.366;-1.498;2023-07-20T03:16:13;100238.16;;;13.06;100.00
41898;BME280;27576;53.366;-1.498;2023-07-20T03:18:44;100240.75;;;13.09;100.00
41898;BME280;27576;53.366;-1.498;2023-07-20T03:21:10;100243.34;;;13.07;100.00
41898;BME280;27576;53.366;-1.498;2023-07-20T03:23:39;100233.78;;;13.03;100.00
41898;BME280;27576;53.366;-1.498;2023-07-20T03:26:05;100239.00;;;13.08;100.00
41898;BME280;27576;53.366;-1.498;2023-07-20T03:28:33;100227.72;;;13.02;100.00
41898;BME280;27576;53.366;-1.498;2023-07-20T03:30:59;100237.25;;;13.11;100.00
41898;BME280;27576;53.366;-1.498;2023-07-20T03:33:28;100198.22;;;12.93;100.00
41898;BME280;27576;53.366;-1.498;2023-07-20T03:35:55;100215.59;;;13.03;100.00
41898;BME280;27576;53.366;-1.498;2023-07-20T03:38:21;100218.19;;;13.06;100.00
41898;BME280;27576;53.366;-1.498;2023-07-20T03:43:16;100235.53;;;13.15;100.00
41898;BME280;27576;53.366;-1.498;2023-07-20T03:45:42;100224.25;;;13.11;100.00
41898;BME280;27576;53.366;-1.498;2023-07-20T03:48:07;100213.84;;;13.08;100.00
41898;BME280;27576;53.366;-1.498;2023-07-20T03:50:33;100232.06;;;13.17;100.00
41898;BME280;27576;53.366;-1.498;2023-07-20T03:52:58;100222.53;;;13.18;100.00
41898;BME280;27576;53.366;-1.498;2023-07-20T03:55:24;100221.66;;;13.20;100.00
41898;BME280;27576;53.366;-1.498;2023-07-20T03:57:49;100199.13;;;13.06;100.00
41898;BME280;27576;53.366;-1.498;2023-07-20T04:00:16;100225.16;;;13.25;100.00
41898;BME280;27576;53.366;-1.498;2023-07-20T04:02:42;100183.50;;;12.99;100.00
41898;BME280;27576;53.366;-1.498;2023-07-20T04:05:07;100219.91;;;13.19;100.00
41898;BME280;27576;53.366;-1.498;2023-07-20T04:07:33;100184.38;;;13.06;100.00
41898;BME280;27576;53.366;-1.498;2023-07-20T04:09:58;100219.94;;;13.29;100.00
41898;BME280;27576;53.366;-1.498;2023-07-20T04:12:24;100193.06;;;13.13;100.00
41898;BME280;27576;53.366;-1.498;2023-07-20T04:14:49;100210.38;;;13.20;100.00
41898;BME280;27576;53.366;-1.498;2023-07-20T04:17:14;100226.88;;;13.31;100.00
41898;BME280;27576;53.366;-1.498;2023-07-20T04:19:40;100204.28;;;13.19;100.00
41898;BME280;27576;53.366;-1.498;2023-07-20T04:22:05;100223.41;;;13.31;100.00
41898;BME280;27576;53.366;-1.498;2023-07-20T04:24:30;100224.28;;;13.33;100.00
41898;BME280;27576;53.366;-1.498;2023-07-20T04:26:56;100225.13;;;13.35;100.00
41898;BME280;27576;53.366;-1.498;2023-07-20T04:29:21;100206.94;;;13.25;100.00
41898;BME280;27576;53.366;-1.498;2023-07-20T04:31:46;100223.41;;;13.37;100.00
41898;BME280;27576;53.366;-1.498;2023-07-20T04:34:12;100206.94;;;13.29;100.00
41898;BME280;27576;53.366;-1.498;2023-07-20T04:36:37;100202.59;;;13.31;100.00
41898;BME280;27576;53.366;-1.498;2023-07-20T04:39:03;100218.19;;;13.41;100.00
41898;BME280;27576;53.366;-1.498;2023-07-20T04:41:28;100220.78;;;13.43;100.00
41898;BME280;27576;53.366;-1.498;2023-07-20T04:43:53;100212.97;;;13.44;100.00
41898;BME280;27576;53.366;-1.498;2023-07-20T04:46:19;100207.75;;;13.46;100.00
41898;BME280;27576;53.366;-1.498;2023-07-20T04:48:46;100182.66;;;13.33;100.00
41898;BME280;27576;53.366;-1.498;2023-07-20T04:51:13;100170.50;;;13.29;100.00
41898;BME280;27576;53.366;-1.498;2023-07-20T04:53:38;100197.34;;;13.43;100.00
41898;BME280;27576;53.366;-1.498;2023-07-20T04:56:04;100190.44;;;13.40;100.00
41898;BME280;27576;53.366;-1.498;2023-07-20T04:58:29;100188.66;;;13.44;100.00
41898;BME280;27576;53.366;-1.498;2023-07-20T05:00:54;100200.81;;;13.51;100.00
41898;BME280;27576;53.366;-1.498;2023-07-20T05:03:20;100202.53;;;13.54;100.00
41898;BME280;27576;53.366;-1.498;2023-07-20T05:05:47;100203.41;;;13.54;100.00
41898;BME280;27576;53.366;-1.498;2023-07-20T05:08:12;100209.47;;;13.58;100.00
41898;BME280;27576;53.366;-1.498;2023-07-20T05:10:38;100222.47;;;13.59;100.00
41898;BME280;27576;53.366;-1.498;2023-07-20T05:13:03;100196.50;;;13.48;100.00
41898;BME280;27576;53.366;-1.498;2023-07-20T05:15:28;100216.38;;;13.63;100.00
41898;BME280;27576;53.366;-1.498;2023-07-20T05:17:54;100215.53;;;13.66;100.00
41898;BME280;27576;53.366;-1.498;2023-07-20T05:20:19;100199.91;;;13.58;100.00
41898;BME280;27576;53.366;-1.498;2023-07-20T05:22:45;100219.84;;;13.70;100.00
41898;BME280;27576;53.366;-1.498;2023-07-20T05:25:11;100218.97;;;13.72;100.00
41898;BME280;27576;53.366;-1.498;2023-07-20T05:27:38;100214.63;;;13.74;100.00
41898;BME280;27576;53.366;-1.498;2023-07-20T05:30:04;100198.19;;;13.65;100.00
41898;BME280;27576;53.366;-1.498;2023-07-20T05:32:30;100222.44;;;13.78;100.00
41898;BME280;27576;53.366;-1.498;2023-07-20T05:34:55;100202.47;;;13.73;100.00
41898;BME280;27576;53.366;-1.498;2023-07-20T05:37:21;100193.81;;;13.70;100.00
41898;BME280;27576;53.366;-1.498;2023-07-20T05:39:46;100221.53;;;13.88;100.00
41898;BME280;27576;53.366;-1.498;2023-07-20T05:42:12;100218.03;;;13.90;100.00
41898;BME280;27576;53.366;-1.498;2023-07-20T05:44:37;100224.09;;;13.94;100.00
41898;BME280;27576;53.366;-1.498;2023-07-20T05:47:03;100225.84;;;13.96;100.00
41898;BME280;27576;53.366;-1.498;2023-07-20T05:49:29;100223.22;;;13.98;100.00
41898;BME280;27576;53.366;-1.498;2023-07-20T05:51:55;100225.81;;;14.01;100.00
41898;BME280;27576;53.366;-1.498;2023-07-20T05:54:22;100218.88;;;14.03;100.00
41898;BME280;27576;53.366;-1.498;2023-07-20T05:56:48;100219.75;;;13.97;100.00
41898;BME280;27576;53.366;-1.498;2023-07-20T05:59:14;100193.72;;;13.94;100.00
41898;BME280;27576;53.366;-1.498;2023-07-20T06:01:40;100220.56;;;14.10;100.00
41898;BME280;27576;53.366;-1.498;2023-07-20T06:04:05;100194.56;;;13.98;100.00
41898;BME280;27576;53.366;-1.498;2023-07-20T06:06:30;100223.97;;;14.21;100.00
41898;BME280;27576;53.366;-1.498;2023-07-20T06:08:56;100188.47;;;14.02;100.00
41898;BME280;27576;53.366;-1.498;2023-07-20T06:11:21;100218.75;;;14.24;100.00
41898;BME280;27576;53.366;-1.498;2023-07-20T06:13:47;100226.59;;;14.23;100.00
41898;BME280;27576;53.366;-1.498;2023-07-20T06:16:12;100220.56;;;14.15;100.00
41898;BME280;27576;53.366;-1.498;2023-07-20T06:18:37;100222.25;;;14.23;100.00
41898;BME280;27576;53.366;-1.498;2023-07-20T06:21:03;100226.56;;;14.26;100.00
41898;BME280;27576;53.366;-1.498;2023-07-20T06:23:29;100204.91;;;14.19;100.00
41898;BME280;27576;53.366;-1.498;2023-07-20T06:25:54;100191.88;;;14.16;100.00
41898;BME280;27576;53.366;-1.498;2023-07-20T06:28:19;100223.91;;;14.34;100.00
41898;BME280;27576;53.366;-1.498;2023-07-20T06:30:45;100215.22;;;14.36;100.00
41898;BME280;27576;53.366;-1.498;2023-07-20T06:33:10;100197.91;;;14.24;100.00
41898;BME280;27576;53.366;-1.498;2023-07-20T06:35:36;100209.19;;;14.31;100.00
41898;BME280;27576;53.366;-1.498;2023-07-20T06:38:02;100201.41;;;14.23;100.00
41898;BME280;27576;53.366;-1.498;2023-07-20T06:40:29;100221.31;;;14.35;100.00
41898;BME280;27576;53.366;-1.498;2023-07-20T06:42:55;100217.03;;;14.27;100.00
41898;BME280;27576;53.366;-1.498;2023-07-20T06:45:20;100221.34;;;14.28;100.00
41898;BME280;27576;53.366;-1.498;2023-07-20T06:47:46;100196.22;;;14.14;100.00
41898;BME280;27576;53.366;-1.498;2023-07-20T06:50:11;100222.25;;;14.27;100.00
41898;BME280;27576;53.366;-1.498;2023-07-20T06:52:37;100212.72;;;14.19;100.00
41898;BME280;27576;53.366;-1.498;2023-07-20T06:55:03;100221.34;;;14.26;100.00
41898;BME280;27576;53.366;-1.498;2023-07-20T06:57:28;100191.03;;;14.07;100.00
41898;BME280;27576;53.366;-1.498;2023-07-20T06:59:53;100223.97;;;14.24;100.00
41898;BME280;27576;53.366;-1.498;2023-07-20T07:02:19;100228.28;;;14.29;100.00
41898;BME280;27576;53.366;-1.498;2023-07-20T07:04:44;100230.91;;;14.32;100.00
41898;BME280;27576;53.366;-1.498;2023-07-20T07:07:13;100230.91;;;14.32;100.00
41898;BME280;27576;53.366;-1.498;2023-07-20T07:09:38;100207.47;;;14.22;100.00
41898;BME280;27576;53.366;-1.498;2023-07-20T07:12:04;100234.34;;;14.37;100.00
41898;BME280;27576;53.366;-1.498;2023-07-20T07:14:29;100230.84;;;14.38;100.00
41898;BME280;27576;53.366;-1.498;2023-07-20T07:16:55;100221.34;;;14.31;100.00
41898;BME280;27576;53.366;-1.498;2023-07-20T07:19:20;100211.75;;;14.33;100.00
41898;BME280;27576;53.366;-1.498;2023-07-20T07:21:45;100231.72;;;14.43;100.00
41898;BME280;27576;53.366;-1.498;2023-07-20T07:24:12;100234.28;;;14.46;100.00
41898;BME280;27576;53.366;-1.498;2023-07-20T07:26:37;100227.34;;;14.45;100.00
41898;BME280;27576;53.366;-1.498;2023-07-20T07:29:03;100241.22;;;14.53;100.00
41898;BME280;27576;53.366;-1.498;2023-07-20T07:31:30;100222.13;;;14.51;100.00
41898;BME280;27576;53.366;-1.498;2023-07-20T07:33:56;100219.53;;;14.46;100.00
41898;BME280;27576;53.366;-1.498;2023-07-20T07:36:21;100244.66;;;14.61;100.00
41898;BME280;27576;53.366;-1.498;2023-07-20T07:38:46;100242.03;;;14.66;100.00
41898;BME280;27576;53.366;-1.498;2023-07-20T07:41:12;100246.34;;;14.71;100.00
41898;BME280;27576;53.366;-1.498;2023-07-20T07:43:37;100227.25;;;14.66;100.00
41898;BME280;27576;53.366;-1.498;2023-07-20T07:46:03;100210.75;;;14.63;100.00
41898;BME280;27576;53.366;-1.498;2023-07-20T07:48:29;100234.94;;;14.86;100.00
41898;BME280;27576;53.366;-1.498;2023-07-20T07:50:54;100242.69;;;14.92;100.00
41898;BME280;27576;53.366;-1.498;2023-07-20T07:53:20;100235.72;;;14.96;100.00
41898;BME280;27576;53.366;-1.498;2023-07-20T07:55:47;100220.97;;;14.89;100.00
41898;BME280;27576;53.366;-1.498;2023-07-20T07:58:13;100236.53;;;15.01;100.00
41898;BME280;27576;53.366;-1.498;2023-07-20T08:00:39;100246.91;;;15.10;100.00
41898;BME280;27576;53.366;-1.498;2023-07-20T08:03:06;100238.22;;;15.08;100.00
41898;BME280;27576;53.366;-1.498;2023-07-20T08:05:31;100247.72;;;15.15;100.00
41898;BME280;27576;53.366;-1.498;2023-07-20T08:07:57;100240.75;;;15.16;100.00
41898;BME280;27576;53.366;-1.498;2023-07-20T08:10:22;100244.25;;;15.18;100.00
41898;BME280;27576;53.366;-1.498;2023-07-20T08:12:48;100225.22;;;15.05;100.00
41898;BME280;27576;53.366;-1.498;2023-07-20T08:15:13;100245.97;;;15.19;100.00
41898;BME280;27576;53.366;-1.498;2023-07-20T08:17:41;100228.63;;;15.13;100.00
41898;BME280;27576;53.366;-1.498;2023-07-20T08:20:08;100257.22;;;15.26;100.00
41898;BME280;27576;53.366;-1.498;2023-07-20T08:22:36;100220.78;;;15.12;100.00
41898;BME280;27576;53.366;-1.498;2023-07-20T08:25:02;100251.97;;;15.30;100.00
41898;BME280;27576;53.366;-1.498;2023-07-20T08:27:27;100246.75;;;15.27;100.00
41898;BME280;27576;53.366;-1.498;2023-07-20T08:29:52;100258.03;;;15.34;97.94
41898;BME280;27576;53.366;-1.498;2023-07-20T08:32:18;100242.38;;;15.31;98.29
41898;BME280;27576;53.366;-1.498;2023-07-20T08:34:43;100246.66;;;15.36;99.70
41898;BME280;27576;53.366;-1.498;2023-07-20T08:37:08;100235.41;;;15.33;100.00
41898;BME280;27576;53.366;-1.498;2023-07-20T08:39:35;100250.91;;;15.48;99.44
41898;BME280;27576;53.366;-1.498;2023-07-20T08:42:01;100250.84;;;15.54;95.98
41898;BME280;27576;53.366;-1.498;2023-07-20T08:44:29;100261.31;;;15.51;92.96
41898;BME280;27576;53.366;-1.498;2023-07-20T08:46:56;100241.41;;;15.42;96.77
41898;BME280;27576;53.366;-1.498;2023-07-20T08:49:23;100266.44;;;15.63;96.62
41898;BME280;27576;53.366;-1.498;2023-07-20T08:51:48;100262.97;;;15.61;91.31
41898;BME280;27576;53.366;-1.498;2023-07-20T08:54:14;100263.88;;;15.59;92.73
41898;BME280;27576;53.366;-1.498;2023-07-20T08:56:42;100263.81;;;15.69;92.50
41898;BME280;27576;53.366;-1.498;2023-07-20T08:59:10;100239.56;;;15.54;91.67
41898;BME280;27576;53.366;-1.498;2023-07-20T09:01:39;100278.53;;;15.77;93.83
41898;BME280;27576;53.366;-1.498;2023-07-20T09:04:04;100259.41;;;15.71;90.82
41898;BME280;27576;53.366;-1.498;2023-07-20T09:06:30;100262.78;;;15.84;93.05
41898;BME280;27576;53.366;-1.498;2023-07-20T09:08:55;100240.94;;;15.90;95.04
41898;BME280;27576;53.366;-1.498;2023-07-20T09:11:21;100254.69;;;16.04;93.67
41898;BME280;27576;53.366;-1.498;2023-07-20T09:13:46;100256.31;;;16.16;92.88
41898;BME280;27576;53.366;-1.498;2023-07-20T09:16:15;100255.31;;;16.25;92.46
41898;BME280;27576;53.366;-1.498;2023-07-20T09:18:41;100252.72;;;16.22;90.00
41898;BME280;27576;53.366;-1.498;2023-07-20T09:21:06;100238.09;;;16.08;90.50
41898;BME280;27576;53.366;-1.498;2023-07-20T09:23:37;100256.22;;;16.24;91.01
41898;BME280;27576;53.366;-1.498;2023-07-20T09:26:14;100251.84;;;16.24;91.53
41898;BME280;27576;53.366;-1.498;2023-07-20T09:28:49;100248.41;;;16.19;89.41
41898;BME280;27576;53.366;-1.498;2023-07-20T09:31:19;100249.38;;;16.10;88.25
41898;BME280;27576;53.366;-1.498;2023-07-20T09:33:48;100239.97;;;15.97;89.78
41898;BME280;27576;53.366;-1.498;2023-07-20T09:36:14;100249.53;;;15.98;90.84
41898;BME280;27576;53.366;-1.498;2023-07-20T09:38:41;100239.19;;;15.87;91.68
41898;BME280;27576;53.366;-1.498;2023-07-20T09:41:07;100234.09;;;15.78;90.72
41898;BME280;27576;53.366;-1.498;2023-07-20T09:43:34;100241.09;;;15.75;91.91
41898;BME280;27576;53.366;-1.498;2023-07-20T09:45:59;100250.56;;;15.85;92.11
41898;BME280;27576;53.366;-1.498;2023-07-20T09:48:25;100254.84;;;15.90;92.18
41898;BME280;27576;53.366;-1.498;2023-07-20T09:50:54;100244.41;;;15.90;91.46
41898;BME280;27576;53.366;-1.498;2023-07-20T09:53:20;100238.28;;;15.91;91.05
41898;BME280;27576;53.366;-1.498;2023-07-20T09:55:47;100240.81;;;15.99;89.68
41898;BME280;27576;53.366;-1.498;2023-07-20T09:58:16;100241.66;;;16.01;89.24
41898;BME280;27576;53.366;-1.498;2023-07-20T10:00:42;100255.50;;;16.09;89.32
41898;BME280;27576;53.366;-1.498;2023-07-20T10:03:10;100249.38;;;16.12;88.71
41898;BME280;27576;53.366;-1.498;2023-07-20T10:05:40;100238.03;;;16.13;89.43
41898;BME280;27576;53.366;-1.498;2023-07-20T10:08:11;100249.25;;;16.21;89.28
41898;BME280;27576;53.366;-1.498;2023-07-20T10:10:38;100251.84;;;16.24;87.82
41898;BME280;27576;53.366;-1.498;2023-07-20T10:13:08;100247.50;;;16.23;88.16
41898;BME280;27576;53.366;-1.498;2023-07-20T10:15:50;100232.69;;;16.24;91.61
41898;BME280;27576;53.366;-1.498;2023-07-20T10:18:19;100238.63;;;16.35;90.78
41898;BME280;27576;53.366;-1.498;2023-07-20T10:20:47;100235.03;;;16.42;91.03
41898;BME280;27576;53.366;-1.498;2023-07-20T10:23:14;100213.31;;;16.37;89.27
41898;BME280;27576;53.366;-1.498;2023-07-20T10:25:40;100236.59;;;16.55;89.76
41898;BME280;27576;53.366;-1.498;2023-07-20T10:28:07;100234.75;;;16.62;88.59
41898;BME280;27576;53.366;-1.498;2023-07-20T10:30:34;100229.38;;;16.71;89.80
41898;BME280;27576;53.366;-1.498;2023-07-20T10:33:02;100228.34;;;16.84;88.99
41898;BME280;27576;53.366;-1.498;2023-07-20T10:35:28;100246.50;;;16.93;86.13
41898;BME280;27576;53.366;-1.498;2023-07-20T10:38:01;100220.41;;;16.90;85.80
41898;BME280;27576;53.366;-1.498;2023-07-20T10:40:33;100231.38;;;17.12;87.48
41898;BME280;27576;53.366;-1.498;2023-07-20T10:43:03;100231.28;;;17.17;84.73
41898;BME280;27576;53.366;-1.498;2023-07-20T10:45:48;100230.50;;;17.13;84.00
41898;BME280;27576;53.366;-1.498;2023-07-20T10:48:19;100235.53;;;17.24;86.69
41898;BME280;27576;53.366;-1.498;2023-07-20T10:50:45;100235.25;;;17.39;86.16
41898;BME280;27576;53.366;-1.498;2023-07-20T10:53:17;100225.41;;;17.54;86.42
41898;BME280;27576;53.366;-1.498;2023-07-20T10:55:42;100217.34;;;17.63;85.95
41898;BME280;27576;53.366;-1.498;2023-07-20T10:58:13;100217.28;;;17.67;83.29
41898;BME280;27576;53.366;-1.498;2023-07-20T11:00:57;100223.66;;;17.54;78.87
41898;BME280;27576;53.366;-1.498;2023-07-20T11:03:32;100220.44;;;17.38;77.64
41898;BME280;27576;53.366;-1.498;2023-07-20T11:05:58;100212.59;;;17.37;80.65
41898;BME280;27576;53.366;-1.498;2023-07-20T11:08:41;100214.22;;;17.46;81.05
41898;BME280;27576;53.366;-1.498;2023-07-20T11:11:26;100208.75;;;17.56;76.82
41898;BME280;27576;53.366;-1.498;2023-07-20T11:14:00;100200.97;;;17.52;76.11
41898;BME280;27576;53.366;-1.498;2023-07-20T11:16:43;100198.25;;;17.58;80.64
41898;BME280;27576;53.366;-1.498;2023-07-20T11:19:15;100204.31;;;17.61;77.74
41898;BME280;27576;53.366;-1.498;2023-07-20T11:21:42;100206.25;;;17.50;77.36
41898;BME280;27576;53.366;-1.498;2023-07-20T11:24:08;100196.97;;;17.34;75.18
41898;BME280;27576;53.366;-1.498;2023-07-20T11:27:04;100207.53;;;17.28;75.07
41898;BME280;27576;53.366;-1.498;2023-07-20T11:29:30;100182.47;;;17.14;74.87
41898;BME280;27576;53.366;-1.498;2023-07-20T11:31:56;100177.19;;;17.17;76.02
41898;BME280;27576;53.366;-1.498;2023-07-20T11:34:22;100172.69;;;17.24;76.12
41898;BME280;27576;53.366;-1.498;2023-07-20T11:36:48;100186.25;;;17.45;72.42
41898;BME280;27576;53.366;-1.498;2023-07-20T11:39:15;100176.72;;;17.40;75.21
41898;BME280;27576;53.366;-1.498;2023-07-20T11:41:48;100199.16;;;17.55;72.86
41898;BME280;27576;53.366;-1.498;2023-07-20T11:44:18;100195.53;;;17.62;71.12
41898;BME280;27576;53.366;-1.498;2023-07-20T11:46:44;100184.19;;;17.62;70.13
41898;BME280;27576;53.366;-1.498;2023-07-20T11:49:11;100188.53;;;17.64;70.10
41898;BME280;27576;53.366;-1.498;2023-07-20T11:51:36;100185.72;;;17.74;70.98
41898;BME280;27576;53.366;-1.498;2023-07-20T11:54:04;100185.28;;;17.97;71.97
41898;BME280;27576;53.366;-1.498;2023-07-20T11:56:30;100185.59;;;18.22;67.98
41898;BME280;27576;53.366;-1.498;2023-07-20T11:58:57;100174.41;;;18.52;69.83
41898;BME280;27576;53.366;-1.498;2023-07-20T12:01:24;100169.44;;;18.79;64.97
41898;BME280;27576;53.366;-1.498;2023-07-20T12:03:51;100142.13;;;18.86;66.25
41898;BME280;27576;53.366;-1.498;2023-07-20T12:06:17;100168.56;;;19.14;67.99
41898;BME280;27576;53.366;-1.498;2023-07-20T12:08:43;100163.13;;;19.20;65.10
41898;BME280;27576;53.366;-1.498;2023-07-20T12:11:09;100151.63;;;19.24;66.98
41898;BME280;27576;53.366;-1.498;2023-07-20T12:16:09;100152.97;;;20.01;64.50
41898;BME280;27576;53.366;-1.498;2023-07-20T12:18:35;100148.09;;;20.45;63.24
41898;BME280;27576;53.366;-1.498;2023-07-20T12:21:01;100143.00;;;20.69;60.78
41898;BME280;27576;53.366;-1.498;2023-07-20T12:23:34;100136.44;;;20.80;62.71
41898;BME280;27576;53.366;-1.498;2023-07-20T12:26:01;100136.63;;;21.01;60.87
41898;BME280;27576;53.366;-1.498;2023-07-20T12:28:26;100143.63;;;21.27;58.70
41898;BME280;27576;53.366;-1.498;2023-07-20T12:30:51;100141.13;;;20.97;53.38
41898;BME280;27576;53.366;-1.498;2023-07-20T12:33:22;100143.91;;;20.68;55.60
41898;BME280;27576;53.366;-1.498;2023-07-20T12:35:48;100139.66;;;20.64;52.92
41898;BME280;27576;53.366;-1.498;2023-07-20T12:38:15;100133.50;;;20.63;56.71
41898;BME280;27576;53.366;-1.498;2023-07-20T12:40:41;100136.91;;;20.67;52.91
41898;BME280;27576;53.366;-1.498;2023-07-20T12:43:06;100114.13;;;20.66;51.67